createdAt,value
2023-04-08T00:01:29.097Z,21.83
2023-04-08T00:04:02.052Z,20.43
2023-04-08T00:06:35.352Z,22.50
2023-04-08T00:09:09.892Z,20.73
2023-04-08T00:11:40.744Z,24.63
2023-04-08T00:14:11.641Z,23.87
2023-04-08T00:16:42.465Z,25.23
2023-04-08T00:19:13.409Z,26.27
2023-04-08T00:21:44.343Z,26.60
2023-04-08T00:24:14.923Z,27.05
2023-04-08T00:26:45.472Z,25.55
2023-04-08T00:29:17.336Z,27.87
2023-04-08T00:31:49.700Z,30.30
2023-04-08T00:34:22.553Z,28.33
2023-04-08T00:36:53.183Z,28.97
2023-04-08T00:39:23.616Z,32.10
2023-04-08T00:41:54.528Z,32.73
2023-04-08T00:44:25.801Z,32.80
2023-04-08T00:46:56.521Z,33.60
2023-04-08T00:49:27.856Z,32.17
2023-04-08T00:52:01.824Z,31.90
2023-04-08T00:54:32.580Z,34.67
2023-04-08T00:57:04.931Z,32.80
2023-04-08T00:59:38.977Z,35.90
2023-04-08T01:02:21.712Z,35.33
2023-04-08T01:05:10.892Z,40.30
2023-04-08T01:07:47.464Z,36.37
2023-04-08T01:10:22.473Z,40.70
2023-04-08T01:13:06.282Z,40.83
2023-04-08T01:15:42.426Z,40.27
2023-04-08T01:18:15.564Z,39.03
2023-04-08T01:20:47.630Z,37.83
2023-04-08T01:23:41.295Z,39.40
2023-04-08T01:26:17.580Z,40.10
2023-04-08T01:28:52.136Z,40.13
2023-04-08T01:31:24.793Z,38.57
2023-04-08T01:33:57.170Z,41.58
2023-04-08T01:36:29.466Z,41.30
2023-04-08T01:39:02.925Z,42.30
2023-04-08T01:41:36.765Z,41.73
2023-04-08T01:44:07.393Z,42.50
2023-04-08T01:46:39.799Z,42.20
2023-04-08T01:49:12.014Z,40.80
2023-04-08T01:51:42.710Z,41.27
2023-04-08T01:54:13.524Z,42.13
2023-04-08T01:56:46.472Z,40.73
2023-04-08T01:59:20.029Z,40.67
2023-04-08T02:01:52.246Z,39.77
2023-04-08T02:04:22.966Z,38.45
2023-04-08T02:06:57.410Z,41.50
2023-04-08T02:09:28.163Z,36.93
2023-04-08T02:12:00.518Z,38.27
2023-04-08T02:14:32.408Z,36.40
2023-04-08T02:17:08.814Z,40.73
2023-04-08T02:19:51.328Z,39.60
2023-04-08T02:22:43.329Z,40.13
2023-04-08T02:25:16.356Z,38.33
2023-04-08T02:27:49.401Z,39.60
2023-04-08T02:30:23.459Z,38.30
2023-04-08T02:32:57.220Z,39.60
2023-04-08T02:35:29.838Z,39.17
2023-04-08T02:38:01.055Z,40.80
2023-04-08T02:40:33.200Z,39.13
2023-04-08T02:43:04.161Z,37.50
2023-04-08T02:45:39.419Z,43.50
2023-04-08T02:48:10.582Z,39.57
2023-04-08T02:50:41.479Z,39.87
2023-04-08T02:53:12.009Z,39.63
2023-04-08T02:55:42.731Z,42.45
2023-04-08T02:58:13.404Z,35.27
2023-04-08T03:00:44.498Z,41.07
2023-04-08T03:03:17.053Z,40.07
2023-04-08T03:05:50.488Z,41.28
2023-04-08T03:08:21.551Z,36.80
2023-04-08T03:10:52.157Z,40.10
2023-04-08T03:13:22.830Z,35.15
2023-04-08T03:15:54.972Z,40.80
2023-04-08T03:18:27.161Z,39.27
2023-04-08T03:21:01.042Z,38.77
2023-04-08T03:23:31.731Z,40.57
2023-04-08T03:26:03.788Z,40.63
2023-04-08T03:28:35.741Z,40.00
2023-04-08T03:31:06.889Z,38.77
2023-04-08T03:33:37.387Z,38.53
2023-04-08T03:36:08.805Z,35.67
2023-04-08T03:38:39.584Z,39.17
2023-04-08T03:41:09.990Z,41.30
2023-04-08T03:43:40.719Z,40.33
2023-04-08T03:46:11.508Z,40.77
2023-04-08T03:48:43.708Z,37.60
2023-04-08T03:51:14.411Z,40.20
2023-04-08T03:53:45.092Z,39.50
2023-04-08T03:56:16.186Z,48.17
2023-04-08T03:58:46.847Z,37.50
2023-04-08T04:01:17.348Z,45.93
2023-04-08T04:03:48.637Z,42.67
2023-04-08T04:06:19.459Z,47.73
2023-04-08T04:08:50.568Z,43.37
2023-04-08T04:11:22.426Z,43.30
2023-04-08T04:13:52.945Z,46.70
2023-04-08T04:16:23.834Z,49.33
2023-04-08T04:18:55.812Z,39.80
2023-04-08T04:21:27.057Z,45.07
2023-04-08T04:24:00.465Z,45.10
2023-04-08T04:26:31.190Z,47.93
2023-04-08T04:29:03.842Z,46.83
2023-04-08T04:31:34.534Z,48.33
2023-04-08T04:34:05.760Z,47.60
2023-04-08T04:36:38.005Z,46.80
2023-04-08T04:39:09.008Z,40.93
2023-04-08T04:41:43.091Z,40.77
2023-04-08T04:44:14.059Z,46.67
2023-04-08T04:46:46.169Z,45.93
2023-04-08T04:49:16.741Z,44.60
2023-04-08T04:51:48.681Z,42.50
2023-04-08T04:54:19.238Z,45.20
2023-04-08T04:56:50.008Z,40.63
2023-04-08T04:59:20.675Z,40.13
2023-04-08T05:01:53.779Z,43.33
2023-04-08T05:04:26.472Z,40.93
2023-04-08T05:07:02.471Z,44.13
2023-04-08T05:09:35.217Z,43.50
2023-04-08T05:12:06.194Z,38.93
2023-04-08T05:14:36.829Z,41.57
2023-04-08T05:17:08.440Z,43.70
2023-04-08T05:19:39.046Z,42.00
2023-04-08T05:22:13.573Z,43.10
2023-04-08T05:24:45.673Z,43.50
2023-04-08T05:27:16.199Z,40.30
2023-04-08T05:29:49.215Z,42.67
2023-04-08T05:32:19.894Z,40.77
2023-04-08T05:34:50.919Z,42.03
2023-04-08T05:37:23.228Z,40.83
2023-04-08T05:39:53.992Z,40.90
2023-04-08T05:42:26.867Z,41.00
2023-04-08T05:44:57.375Z,43.93
2023-04-08T05:47:31.115Z,44.17
2023-04-08T05:50:01.879Z,46.37
2023-04-08T05:52:32.613Z,43.63
2023-04-08T05:55:03.238Z,39.23
2023-04-08T05:57:33.833Z,44.77
2023-04-08T06:00:06.341Z,42.43
2023-04-08T06:02:37.340Z,44.83
2023-04-08T06:05:10.213Z,41.53
2023-04-08T06:07:43.833Z,45.55
2023-04-08T06:10:14.601Z,47.10
2023-04-08T06:12:45.363Z,46.43
2023-04-08T06:15:18.091Z,43.37
2023-04-08T06:17:52.205Z,49.20
2023-04-08T06:20:23.210Z,42.43
2023-04-08T06:22:56.060Z,44.97
2023-04-08T06:25:26.214Z,45.87
2023-04-08T06:27:56.852Z,47.65
2023-04-08T06:30:27.427Z,48.52
2023-04-08T06:32:57.904Z,39.80
2023-04-08T06:35:28.642Z,42.87
2023-04-08T06:38:00.403Z,47.00
2023-04-08T06:40:32.793Z,44.07
2023-04-08T06:43:03.690Z,45.13
2023-04-08T06:45:36.186Z,42.93
2023-04-08T06:48:08.460Z,42.10
2023-04-08T06:50:39.055Z,45.20
2023-04-08T06:53:09.702Z,41.30
2023-04-08T06:55:40.193Z,43.30
2023-04-08T06:58:10.937Z,46.40
2023-04-08T07:00:42.750Z,40.07
2023-04-08T07:03:13.443Z,42.67
2023-04-08T07:05:45.311Z,38.80
2023-04-08T07:08:17.226Z,41.13
2023-04-08T07:10:50.342Z,43.97
2023-04-08T07:13:20.946Z,40.40
2023-04-08T07:15:51.584Z,38.88
2023-04-08T07:18:22.612Z,40.57
2023-04-08T07:20:55.698Z,42.33
2023-04-08T07:23:26.269Z,40.95
2023-04-08T07:25:57.008Z,44.48
2023-04-08T07:28:29.582Z,40.20
2023-04-08T07:31:17.469Z,35.28
2023-04-08T07:33:48.273Z,34.55
2023-04-08T07:36:19.753Z,42.78
2023-04-08T07:38:51.324Z,36.73
2023-04-08T07:41:23.485Z,38.20
2023-04-08T07:43:55.073Z,36.63
2023-04-08T07:46:28.550Z,40.95
2023-04-08T07:48:59.136Z,37.10
2023-04-08T07:51:29.996Z,37.38
2023-04-08T07:54:01.626Z,36.98
2023-04-08T07:56:32.231Z,39.05
2023-04-08T07:59:03.145Z,37.88
2023-04-08T08:01:35.815Z,40.48
2023-04-08T08:04:06.661Z,38.53
2023-04-08T08:06:37.253Z,36.90
2023-04-08T08:09:07.731Z,39.27
2023-04-08T08:11:38.385Z,36.80
2023-04-08T08:14:08.950Z,35.00
2023-04-08T08:16:40.214Z,32.25
2023-04-08T08:19:12.438Z,37.67
2023-04-08T08:21:44.103Z,33.67
2023-04-08T08:24:16.903Z,33.65
2023-04-08T08:26:49.113Z,34.27
2023-04-08T08:29:19.698Z,35.28
2023-04-08T08:31:52.427Z,39.50
2023-04-08T08:34:24.400Z,33.48
2023-04-08T08:36:55.967Z,33.67
2023-04-08T08:39:26.958Z,31.37
2023-04-08T08:41:57.913Z,31.85
2023-04-08T08:44:28.861Z,34.65
2023-04-08T08:46:59.577Z,31.93
2023-04-08T08:49:30.705Z,34.85
2023-04-08T08:52:01.902Z,35.40
2023-04-08T08:54:32.591Z,32.67
2023-04-08T08:57:04.684Z,31.85
2023-04-08T08:59:35.659Z,31.20
2023-04-08T09:02:10.959Z,33.05
2023-04-08T09:04:45.944Z,34.40
2023-04-08T09:07:16.801Z,34.00
2023-04-08T09:09:51.664Z,32.45
2023-04-08T09:12:22.753Z,33.05
2023-04-08T09:14:54.832Z,32.78
2023-04-08T09:17:41.481Z,32.93
2023-04-08T09:20:15.455Z,32.15
2023-04-08T09:23:03.296Z,33.33
2023-04-08T09:25:35.113Z,33.45
2023-04-08T09:28:06.299Z,35.48
2023-04-08T09:30:36.885Z,33.28
2023-04-08T09:33:07.572Z,34.45
2023-04-08T09:35:38.787Z,30.15
2023-04-08T09:38:09.646Z,37.35
2023-04-08T09:40:46.342Z,35.35
2023-04-08T09:43:20.553Z,34.35
2023-04-08T09:45:52.148Z,34.23
2023-04-08T09:48:28.699Z,30.75
2023-04-08T09:51:00.453Z,33.70
2023-04-08T09:53:39.818Z,32.50
2023-04-08T09:56:13.079Z,31.35
2023-04-08T09:58:47.292Z,30.65
2023-04-08T10:01:21.040Z,33.70
2023-04-08T10:03:54.989Z,32.55
2023-04-08T10:06:29.659Z,32.25
2023-04-08T10:09:02.868Z,32.03
2023-04-08T10:11:34.655Z,31.05
2023-04-08T10:14:06.923Z,32.90
2023-04-08T10:16:38.976Z,32.67
2023-04-08T10:19:43.025Z,33.75
2023-04-08T10:22:37.235Z,33.30
2023-04-08T10:25:20.420Z,30.88
2023-04-08T10:27:52.524Z,29.70
2023-04-08T10:30:32.196Z,29.30
2023-04-08T10:33:03.469Z,28.60
2023-04-08T10:35:40.236Z,29.20
2023-04-08T10:38:12.950Z,30.52
2023-04-08T10:40:45.873Z,29.45
2023-04-08T10:43:16.789Z,26.87
2023-04-08T10:45:49.097Z,27.62
2023-04-08T10:48:23.816Z,26.62
2023-04-08T10:50:57.088Z,26.05
2023-04-08T10:53:31.560Z,24.92
2023-04-08T10:56:11.107Z,24.12
2023-04-08T10:58:52.771Z,24.75
2023-04-08T11:01:24.590Z,24.12
2023-04-08T11:03:55.455Z,26.10
2023-04-08T11:06:27.631Z,24.35
2023-04-08T11:09:00.177Z,23.25
2023-04-08T11:11:32.727Z,21.85
2023-04-08T11:14:04.843Z,21.97
2023-04-08T11:16:38.428Z,20.77
2023-04-08T11:19:12.055Z,22.27
2023-04-08T11:21:43.261Z,22.52
2023-04-08T11:24:14.456Z,22.75
2023-04-08T11:26:45.387Z,22.02
2023-04-08T11:29:19.191Z,21.57
2023-04-08T11:32:04.878Z,23.62
2023-04-08T11:34:37.078Z,23.62
2023-04-08T11:37:07.567Z,20.62
2023-04-08T11:39:45.927Z,24.27
2023-04-08T11:42:34.601Z,21.90
2023-04-08T11:45:13.393Z,21.60
2023-04-08T11:47:46.840Z,21.27
2023-04-08T11:50:29.081Z,20.25
2023-04-08T11:53:00.857Z,22.87
2023-04-08T11:55:35.136Z,22.22
2023-04-08T11:58:07.725Z,21.77
2023-04-08T12:00:41.747Z,23.87
2023-04-08T12:03:13.565Z,24.25
2023-04-08T12:05:44.562Z,22.07
2023-04-08T12:08:19.392Z,25.35
2023-04-08T12:10:50.246Z,25.35
2023-04-08T12:13:22.673Z,26.75
2023-04-08T12:15:53.281Z,22.67
2023-04-08T12:18:24.362Z,24.07
2023-04-08T12:20:55.023Z,23.77
2023-04-08T12:23:26.010Z,26.50
2023-04-08T12:25:56.623Z,23.52
2023-04-08T12:28:27.769Z,22.20
2023-04-08T12:31:00.062Z,19.30
2023-04-08T12:33:32.618Z,20.97
2023-04-08T12:36:03.690Z,18.35
2023-04-08T12:38:34.314Z,16.35
2023-04-08T12:41:05.090Z,16.87
2023-04-08T12:43:35.723Z,16.00
2023-04-08T12:46:07.954Z,18.42
2023-04-08T12:48:39.116Z,15.30
2023-04-08T12:51:10.682Z,18.10
2023-04-08T12:53:41.550Z,15.90
2023-04-08T12:56:12.374Z,15.78
2023-04-08T12:58:45.664Z,18.50
2023-04-08T13:01:19.620Z,17.23
2023-04-08T13:03:50.405Z,18.67
2023-04-08T13:06:21.114Z,18.32
2023-04-08T13:08:52.097Z,18.80
2023-04-08T13:11:22.980Z,19.02
2023-04-08T13:13:53.923Z,19.25
2023-04-08T13:16:26.120Z,19.10
2023-04-08T13:18:56.698Z,18.52
2023-04-08T13:21:28.008Z,20.80
2023-04-08T13:24:00.490Z,17.62
2023-04-08T13:26:32.616Z,19.67
2023-04-08T13:29:03.417Z,20.20
2023-04-08T13:31:34.493Z,15.10
2023-04-08T13:34:07.180Z,16.20
2023-04-08T13:36:37.715Z,16.27
2023-04-08T13:39:08.250Z,13.95
2023-04-08T13:41:39.032Z,13.60
2023-04-08T13:44:10.915Z,13.85
2023-04-08T13:46:42.784Z,14.33
2023-04-08T13:49:13.895Z,13.40
2023-04-08T13:51:45.654Z,12.60
2023-04-08T13:54:17.875Z,13.45
2023-04-08T13:56:51.169Z,12.33
2023-04-08T13:59:21.749Z,12.68
2023-04-08T14:01:54.290Z,13.20
2023-04-08T14:04:25.243Z,13.60
2023-04-08T14:06:57.538Z,12.37
2023-04-08T14:09:28.553Z,12.23
2023-04-08T14:11:59.051Z,14.03
2023-04-08T14:14:29.693Z,14.28
2023-04-08T14:17:05.689Z,16.25
2023-04-08T14:19:36.358Z,14.55
2023-04-08T14:22:08.336Z,15.65
2023-04-08T14:24:38.952Z,12.88
2023-04-08T14:27:12.593Z,13.32
2023-04-08T14:29:43.801Z,13.48
2023-04-08T14:32:14.691Z,12.68
2023-04-08T14:34:45.782Z,14.35
2023-04-08T14:37:17.792Z,12.15
2023-04-08T14:39:48.809Z,12.73
2023-04-08T14:42:22.556Z,12.40
2023-04-08T14:44:53.141Z,12.68
2023-04-08T14:47:26.558Z,11.60
2023-04-08T14:49:57.168Z,11.38
2023-04-08T14:52:31.210Z,11.73
2023-04-08T14:55:03.404Z,12.80
2023-04-08T14:57:34.237Z,10.85
2023-04-08T15:00:05.049Z,11.78
2023-04-08T15:02:35.865Z,11.45
2023-04-08T15:05:08.618Z,12.35
2023-04-08T15:07:40.817Z,11.88
2023-04-08T15:10:12.124Z,12.05
2023-04-08T15:12:42.667Z,11.75
2023-04-08T15:15:13.400Z,11.43
2023-04-08T15:17:44.036Z,12.10
2023-04-08T15:20:18.172Z,11.65
2023-04-08T15:22:50.138Z,11.57
2023-04-08T15:25:21.123Z,11.40
2023-04-08T15:27:52.411Z,11.83
2023-04-08T15:30:24.673Z,11.78
2023-04-08T15:32:57.384Z,11.57
2023-04-08T15:35:27.704Z,12.45
2023-04-08T15:38:02.012Z,12.10
2023-04-08T15:40:35.620Z,11.53
2023-04-08T15:43:06.877Z,11.15
2023-04-08T15:45:44.579Z,12.05
2023-04-08T15:48:16.730Z,11.93
2023-04-08T15:50:47.466Z,11.63
2023-04-08T15:53:18.144Z,11.57
2023-04-08T15:55:50.293Z,11.03
2023-04-08T15:58:21.297Z,11.63
2023-04-08T16:00:52.704Z,11.60
2023-04-08T16:03:23.345Z,11.70
2023-04-08T16:05:54.270Z,11.60
2023-04-08T16:08:24.833Z,11.70
2023-04-08T16:11:03.401Z,11.53
2023-04-08T16:13:34.372Z,11.57
2023-04-08T16:16:05.078Z,11.88
2023-04-08T16:18:35.937Z,11.03
2023-04-08T16:21:08.131Z,11.80
2023-04-08T16:23:39.002Z,11.35
2023-04-08T16:26:09.906Z,11.40
2023-04-08T16:28:41.062Z,11.73
2023-04-08T16:31:12.092Z,11.55
2023-04-08T16:33:42.863Z,11.75
2023-04-08T16:36:15.038Z,11.25
2023-04-08T16:38:47.764Z,11.83
2023-04-08T16:41:18.344Z,11.68
2023-04-08T16:43:51.096Z,12.05
2023-04-08T16:46:24.933Z,11.15
2023-04-08T16:48:55.716Z,12.05
2023-04-08T16:51:26.546Z,11.55
2023-04-08T16:53:58.976Z,10.63
2023-04-08T16:56:32.392Z,10.63
2023-04-08T16:59:03.058Z,10.20
2023-04-08T17:01:33.814Z,11.43
2023-04-08T17:04:05.504Z,10.60
2023-04-08T17:06:37.646Z,11.93
2023-04-08T17:09:09.941Z,10.10
2023-04-08T17:11:41.403Z,11.50
2023-04-08T17:14:12.318Z,12.30
2023-04-08T17:16:43.119Z,12.68
2023-04-08T17:19:15.443Z,16.20
2023-04-08T17:21:48.023Z,17.75
2023-04-08T17:24:20.403Z,17.73
2023-04-08T17:26:50.941Z,20.72
2023-04-08T17:29:22.278Z,18.52
2023-04-08T17:31:54.754Z,20.70
2023-04-08T17:34:26.479Z,22.90
2023-04-08T17:36:57.462Z,22.40
2023-04-08T17:39:30.146Z,23.35
2023-04-08T17:42:02.993Z,23.57
2023-04-08T17:44:33.676Z,24.82
2023-04-08T17:47:05.002Z,23.98
2023-04-08T17:49:36.014Z,24.72
2023-04-08T17:52:07.689Z,22.25
2023-04-08T17:54:41.831Z,24.65
2023-04-08T17:57:13.041Z,24.90
2023-04-08T17:59:44.944Z,24.18
2023-04-08T18:02:15.805Z,28.60
2023-04-08T18:04:47.922Z,27.55
2023-04-08T18:07:23.528Z,27.87
2023-04-08T18:09:54.180Z,27.70
2023-04-08T18:12:26.229Z,26.50
2023-04-08T18:14:58.305Z,25.23
2023-04-08T18:17:29.190Z,25.88
2023-04-08T18:20:00.324Z,26.55
2023-04-08T18:22:32.263Z,25.92
2023-04-08T18:25:03.253Z,24.67
2023-04-08T18:27:34.853Z,26.48
2023-04-08T18:30:05.824Z,32.63
2023-04-08T18:32:39.617Z,27.50
2023-04-08T18:35:11.982Z,29.30
2023-04-08T18:37:43.630Z,28.62
2023-04-08T18:40:15.396Z,25.85
2023-04-08T18:42:46.048Z,27.57
2023-04-08T18:45:16.570Z,29.50
2023-04-08T18:47:47.107Z,25.60
2023-04-08T18:50:17.692Z,27.10
2023-04-08T18:52:48.299Z,30.43
2023-04-08T18:55:18.947Z,26.02
2023-04-08T18:57:49.661Z,26.17
2023-04-08T19:00:21.763Z,25.72
2023-04-08T19:02:53.141Z,30.57
2023-04-08T19:05:24.070Z,27.22
2023-04-08T19:07:55.668Z,24.23
2023-04-08T19:10:26.333Z,27.35
2023-04-08T19:12:59.165Z,25.20
2023-04-08T19:15:30.498Z,26.25
2023-04-08T19:18:04.343Z,26.87
2023-04-08T19:20:36.535Z,25.65
2023-04-08T19:23:09.651Z,25.17
2023-04-08T19:25:40.315Z,24.65
2023-04-08T19:28:14.815Z,23.67
2023-04-08T19:30:45.461Z,24.15
2023-04-08T19:33:15.948Z,24.60
2023-04-08T19:35:49.542Z,24.37
2023-04-08T19:38:21.384Z,24.92
2023-04-08T19:40:53.498Z,25.30
2023-04-08T19:43:23.952Z,22.80
2023-04-08T19:45:55.996Z,24.37
2023-04-08T19:48:27.646Z,38.25
2023-04-08T19:50:59.688Z,23.22
2023-04-08T19:53:30.620Z,23.75
2023-04-08T19:56:02.474Z,23.85
2023-04-08T19:58:33.122Z,25.50
2023-04-08T20:01:04.956Z,22.77
2023-04-08T20:03:36.005Z,23.30
2023-04-08T20:06:06.782Z,24.65
2023-04-08T20:08:39.732Z,25.90
2023-04-08T20:11:13.170Z,24.52
2023-04-08T20:13:43.722Z,24.98
2023-04-08T20:16:14.522Z,25.75
2023-04-08T20:18:45.077Z,25.23
2023-04-08T20:21:15.702Z,23.05
2023-04-08T20:23:46.377Z,23.87
2023-04-08T20:26:23.056Z,28.40
2023-04-08T20:28:59.195Z,26.62
2023-04-08T20:31:32.387Z,27.62
2023-04-08T20:34:04.131Z,25.65
2023-04-08T20:36:36.441Z,24.47
2023-04-08T20:39:08.552Z,26.97
2023-04-08T20:41:41.529Z,26.73
2023-04-08T20:44:12.979Z,26.25
2023-04-08T20:46:45.291Z,27.65
2023-04-08T20:49:17.932Z,25.10
2023-04-08T20:51:48.817Z,27.35
2023-04-08T20:54:23.183Z,29.15
2023-04-08T20:56:55.691Z,28.42
2023-04-08T20:59:26.390Z,29.23
2023-04-08T21:01:57.939Z,26.83
2023-04-08T21:04:29.885Z,30.95
2023-04-08T21:07:03.572Z,29.13
2023-04-08T21:09:36.721Z,28.33
2023-04-08T21:12:10.672Z,29.95
2023-04-08T21:14:43.101Z,31.12
2023-04-08T21:17:13.770Z,29.37
2023-04-08T21:19:44.918Z,32.03
2023-04-08T21:22:18.349Z,31.17
2023-04-08T21:24:49.547Z,33.95
2023-04-08T21:27:20.326Z,34.53
2023-04-08T21:29:53.946Z,35.50
2023-04-08T21:32:25.166Z,34.27
2023-04-08T21:34:57.109Z,34.88
2023-04-08T21:37:27.896Z,32.67
2023-04-08T21:39:58.379Z,32.50
2023-04-08T21:42:28.904Z,32.77
2023-04-08T21:45:00.797Z,29.72
2023-04-08T21:47:34.552Z,29.92
2023-04-08T21:50:07.273Z,30.68
2023-04-08T21:52:37.999Z,32.37
2023-04-08T21:55:09.939Z,30.37
2023-04-08T21:57:42.647Z,32.55
2023-04-08T22:00:14.393Z,31.30
2023-04-08T22:02:45.189Z,34.20
2023-04-08T22:05:17.143Z,33.13
2023-04-08T22:07:49.268Z,33.33
2023-04-08T22:10:21.123Z,33.23
2023-04-08T22:12:53.310Z,33.90
2023-04-08T22:15:23.933Z,33.75
2023-04-08T22:17:56.566Z,32.20
2023-04-08T22:20:27.665Z,30.43
2023-04-08T22:22:58.352Z,31.50
2023-04-08T22:25:28.866Z,32.57
2023-04-08T22:27:59.485Z,31.17
2023-04-08T22:30:31.187Z,31.12
2023-04-08T22:33:03.004Z,32.53
2023-04-08T22:35:33.539Z,30.70
2023-04-08T22:38:05.340Z,29.45
2023-04-08T22:40:38.828Z,31.37
2023-04-08T22:43:09.348Z,31.25
2023-04-08T22:45:39.993Z,32.85
2023-04-08T22:48:10.615Z,32.05
2023-04-08T22:50:41.443Z,28.93
2023-04-08T22:53:13.609Z,31.27
2023-04-08T22:55:44.103Z,32.38
2023-04-08T22:58:14.722Z,29.73
2023-04-08T23:00:45.387Z,31.20
2023-04-08T23:03:16.213Z,32.60
2023-04-08T23:05:47.648Z,34.55
2023-04-08T23:08:18.140Z,34.53
2023-04-08T23:10:48.929Z,33.07
2023-04-08T23:13:19.512Z,33.53
2023-04-08T23:15:50.078Z,34.85
2023-04-08T23:18:20.812Z,32.00
2023-04-08T23:20:56.746Z,44.80
2023-04-08T23:23:28.567Z,35.83
2023-04-08T23:25:59.309Z,31.07
2023-04-08T23:28:29.775Z,30.87
2023-04-08T23:31:00.423Z,30.40
2023-04-08T23:33:31.038Z,31.02
2023-04-08T23:36:01.569Z,31.93
2023-04-08T23:38:32.622Z,31.87
2023-04-08T23:41:08.734Z,31.42
2023-04-08T23:43:39.384Z,32.05
2023-04-08T23:46:09.968Z,34.53
2023-04-08T23:48:40.583Z,33.30
2023-04-08T23:51:11.762Z,36.13
2023-04-08T23:53:42.296Z,33.58
2023-04-08T23:56:12.884Z,31.90
2023-04-08T23:58:43.358Z,30.35
